Terminal Aerodrome Forecast
Issued by NWS Louisville, KY

Home | Current Version | Previous Version | Text Only | Print | Product List | Glossary On
Versions: 1 2 3 4 5 6 7 8 9 10 11 12 13
000
FTUS43 KLMK 061700
TAFLEX
TAF
KLEX 061727Z 0618/0718 20007KT P6SM SCT030
     FM070000 19004KT P6SM SCT250
     FM071300 19006KT 6SM BR FEW025
     FM071500 21010G18KT P6SM VCSH SCT025 BKN040=

USA.gov is the U.S. government's official web portal to all federal, state and local government web resources and services.